Latest Weather Observations for Mornington Island Airport

IDQ60801

Issued at 2:32 pm EST Saturday 18 April 2015 (issued every 30 minutes, with the page automatically refreshed every 10 minutes)

About weather observations | Map of weather stations | Latest weather observations for QLD | Other Formats
Station Details ID: 029182 Name: MORNINGTON ISLAND AIRPORT Lat: -16.66 Lon: 139.17 Height: 9.0 m
Data from the previous 72 hours. | See also: Recent months at Mornington Island Airport
Date/Time
EST
Temp
°C
App
Temp
°C
Dew
Point
Rel
Hum
%
Delta-T
°C
Wind Press
QNH
hPa
Press
MSL
hPa
Rain
since 9 am
mm
Dir
 
Spd
km/h
Gust
km/h
Spd
kts
Gust
kts
18/02:30pm 31.4 33.1 21.6 56 6.6 SSE 15 22 8 12 1011.8 1011.7 0.0
18/02:00pm 31.0 32.6 21.5 57 6.4 SSE 15 24 8 13 1012.2 1012.1 0.0
18/01:30pm 30.8 32.1 21.6 58 6.2 SSE 17 24 9 13 1012.6 1012.5 0.0
18/01:00pm 31.3 34.3 22.6 60 5.9 SSE 11 17 6 9 1012.9 1012.8 0.0
18/12:30pm 30.9 33.1 21.1 56 6.6 SW 11 17 6 9 1013.5 1013.4 0.0
18/12:00pm 30.7 32.5 21.8 59 6.0 NW 15 20 8 11 1013.9 1013.8 0.0
18/11:30am 32.2 34.4 20.5 50 7.8 SSE 9 15 5 8 1014.2 1014.1 0.0
18/11:00am 31.6 34.0 20.8 52 7.2 ENE 9 19 5 10 1014.4 1014.3 0.0
18/10:30am 31.7 33.2 19.7 49 7.9 NNE 11 17 6 9 1014.7 1014.6 0.0
18/10:00am 30.6 33.8 21.7 59 6.0 NW 7 13 4 7 1015.0 1014.9 0.0
18/09:00am 29.7 33.0 21.4 61 5.6 NE 6 9 3 5 1014.6 1014.5 0.0
18/08:30am 29.5 34.3 22.2 65 4.9 CALM 0 0 0 0 1014.2 1014.1 0.0
18/08:00am 27.3 32.5 22.9 77 3.0 CALM 0 0 0 0 1013.8 1013.7 0.0
18/07:30am 24.8 29.4 21.7 83 2.1 CALM 0 0 0 0 1013.2 1013.1 0.0
18/07:00am 23.8 28.1 21.1 85 1.8 CALM 0 0 0 0 1012.7 1012.6 0.0
18/06:30am 23.7 26.7 20.8 84 1.9 NW 6 7 3 4 1012.2 1012.1 0.0
18/06:00am 23.8 28.0 20.9 84 1.9 CALM 0 0 0 0 1011.8 1011.7 0.0
18/05:30am 24.1 27.0 21.0 83 2.0 N 7 7 4 4 1011.6 1011.5 0.0
18/05:00am 23.6 26.8 20.5 83 2.0 N 4 6 2 3 1011.4 1011.3 0.0
18/04:30am 24.2 27.2 20.9 82 2.2 N 6 7 3 4 1011.3 1011.2 0.0
18/04:00am 24.0 26.5 21.1 84 1.9 NNE 9 11 5 6 1011.2 1011.1 0.0
18/03:30am 23.8 26.6 20.5 82 2.1 NNE 6 7 3 4 1011.3 1011.2 0.0
18/03:00am 24.0 27.0 20.9 83 2.0 N 6 7 3 4 1011.4 1011.3 0.0
18/02:30am 23.9 26.6 20.2 80 2.4 N 6 6 3 3 1011.7 1011.6 0.0
18/02:00am 24.3 27.2 21.0 82 2.2 N 7 9 4 5 1012.0 1011.9 0.0
18/01:30am 24.2 26.7 21.1 83 2.0 N 9 9 5 5 1012.2 1012.1 0.0
18/01:00am 24.5 27.6 21.4 83 2.0 N 7 9 4 5 1012.4 1012.3 0.0
18/12:30am 24.6 29.1 21.5 83 2.1 CALM 0 0 0 0 1012.8 1012.7 0.0
18/12:00am 24.7 28.5 21.6 83 2.1 NNW 4 6 2 3 1013.0 1012.9 0.0
 
Date/Time
EST
Temp
°C
App
Temp
°C
Dew
Point
Rel
Hum
%
Delta-T
°C
Wind Press
QNH
hPa
Press
MSL
hPa
Rain
since 9 am
mm
Dir
 
Spd
km/h
Gust
km/h
Spd
kts
Gust
kts
17/11:30pm 24.6 28.9 21.1 81 2.3 CALM 0 0 0 0 1013.0 1012.9 0.0
17/11:00pm 24.8 29.0 20.9 79 2.6 CALM 0 0 0 0 1013.2 1013.1 0.0
17/10:30pm 25.2 29.2 20.5 75 3.1 CALM 0 0 0 0 1013.4 1013.3 0.0
17/10:00pm 25.2 28.2 20.9 77 2.8 NNE 6 6 3 3 1013.5 1013.4 0.0
17/09:30pm 25.1 28.2 21.4 80 2.4 NNE 7 9 4 5 1013.3 1013.2 0.0
17/09:00pm 25.6 29.9 21.9 80 2.5 E 2 7 1 4 1013.1 1013.0 0.0
17/08:30pm 25.7 28.8 21.1 76 3.0 SSE 6 6 3 3 1012.9 1012.8 0.0
17/08:00pm 26.1 29.0 20.7 72 3.5 SSE 6 7 3 4 1012.6 1012.5 0.0
17/07:30pm 26.6 29.4 20.4 69 4.1 SSE 6 9 3 5 1012.3 1012.2 0.0
17/07:00pm 27.2 30.0 20.5 67 4.4 S 6 7 3 4 1012.1 1012.0 0.0
17/06:30pm 28.4 31.2 20.9 64 5.0 WSW 7 11 4 6 1012.0 1011.9 0.0
17/06:00pm 29.4 31.6 20.5 58 5.9 W 9 13 5 7 1011.6 1011.5 0.0
17/05:30pm 30.2 32.4 20.4 55 6.5 WSW 9 13 5 7 1011.3 1011.2 0.0
17/05:00pm 31.0 31.4 16.2 41 9.3 SE 9 15 5 8 1011.1 1011.0 0.0
17/04:30pm 31.3 31.2 16.1 40 9.5 SE 11 15 6 8 1011.0 1010.9 0.0
17/04:00pm 31.6 30.9 16.3 39 9.6 ESE 15 20 8 11 1011.1 1011.0 0.0
17/03:30pm 32.1 32.1 17.2 41 9.5 ESE 13 19 7 10 1011.0 1010.9 0.0
17/03:00pm 31.9 31.9 18.1 43 8.9 ESE 15 24 8 13 1011.2 1011.1 0.0
17/02:30pm 31.5 30.7 18.1 44 8.6 ESE 19 28 10 15 1011.6 1011.5 0.0
17/02:00pm 31.8 31.0 18.4 45 8.7 E 20 26 11 14 1012.0 1011.9 0.0
17/01:30pm 31.6 31.1 18.6 46 8.4 ESE 19 30 10 16 1012.3 1012.2 0.0
17/01:00pm 31.3 30.6 18.3 46 8.4 ESE 19 28 10 15 1012.6 1012.5 0.0
17/12:30pm 31.6 29.8 17.9 44 8.8 E 24 32 13 17 1013.2 1013.1 0.0
17/12:00pm 31.8 30.4 18.7 45 8.5 E 24 33 13 18 1013.7 1013.6 0.0
17/11:30am 31.7 30.9 19.3 47 8.1 E 22 32 12 17 1014.1 1014.0 0.0
17/11:00am 30.9 29.3 18.3 47 8.1 E 24 30 13 16 1014.6 1014.5 0.0
17/10:30am 31.0 29.7 19.0 48 7.8 ENE 24 32 13 17 1014.9 1014.8 0.0
17/10:00am 30.4 29.1 19.1 50 7.3 ENE 24 33 13 18 1015.0 1014.9 0.0
17/09:30am 30.0 29.4 20.5 56 6.3 ENE 24 30 13 16 1014.8 1014.7 0.0
17/09:00am 29.0 30.1 21.2 62 5.2 ENE 17 22 9 12 1014.6 1014.5 0.0
17/08:30am 27.7 29.6 22.0 71 3.8 ENE 15 20 8 11 1014.5 1014.4 0.0
17/08:00am 26.7 29.8 22.1 76 3.1 E 9 13 5 7 1014.3 1014.2 0.0
17/07:30am 24.9 28.4 22.2 85 1.8 E 7 9 4 5 1014.1 1014.0 0.0
17/07:00am 23.7 27.1 21.6 88 1.4 E 6 7 3 4 1014.0 1013.9 0.0
17/06:30am 23.9 27.2 21.8 88 1.4 E 7 9 4 5 1013.8 1013.7 0.0
17/06:00am 23.6 26.6 21.3 87 1.5 E 7 9 4 5 1013.5 1013.4 0.0
17/05:30am 23.8 27.1 21.5 87 1.5 E 6 7 3 4 1013.2 1013.1 0.0
17/05:00am 23.7 26.8 21.4 87 1.5 ESE 7 9 4 5 1013.1 1013.0 0.0
17/04:30am 24.2 28.9 21.9 87 1.5 CALM 0 0 0 0 1012.9 1012.8 0.0
17/04:00am 24.0 28.5 21.5 86 1.7 CALM 0 0 0 0 1012.6 1012.5 0.0
17/03:30am 24.3 28.6 21.2 83 2.0 CALM 0 0 0 0 1012.6 1012.5 0.0
17/03:00am 25.1 28.2 21.0 78 2.7 WSW 6 7 3 4 1012.8 1012.7 0.0
17/02:30am 26.4 29.4 22.0 77 2.9 WSW 9 11 5 6 1013.2 1013.1 0.0
17/02:00am 25.7 29.2 22.2 81 2.3 W 7 11 4 6 1013.6 1013.5 0.0
17/01:30am 24.4 28.8 21.3 83 2.0 CALM 0 0 0 0 1014.1 1014.0 0.0
17/01:00am 24.3 28.6 21.2 83 2.0 CALM 0 0 0 0 1014.6 1014.5 0.0
17/12:30am 24.6 27.8 21.3 82 2.2 N 6 7 3 4 1015.1 1015.0 0.0
17/12:00am 24.4 27.6 21.3 83 2.0 N 6 7 3 4 1015.4 1015.3 0.0
 
Date/Time
EST
Temp
°C
App
Temp
°C
Dew
Point
Rel
Hum
%
Delta-T
°C
Wind Press
QNH
hPa
Press
MSL
hPa
Rain
since 9 am
mm
Dir
 
Spd
km/h
Gust
km/h
Spd
kts
Gust
kts
16/11:30pm 24.4 27.9 21.1 82 2.2 N 4 6 2 3 1015.6 1015.5 0.0
16/11:00pm 24.5 27.0 21.0 81 2.3 NNE 9 9 5 5 1015.7 1015.6 0.0
16/10:30pm 24.7 27.4 20.6 78 2.7 N 7 11 4 6 1015.8 1015.7 0.0
16/10:00pm 25.0 28.2 20.5 76 2.9 NNE 4 7 2 4 1015.6 1015.5 0.0
16/09:30pm 25.3 28.2 21.0 77 2.8 NNE 7 9 4 5 1015.4 1015.3 0.0
16/09:00pm 25.5 29.3 20.1 72 3.5 CALM 0 0 0 0 1015.3 1015.2 0.0
16/08:30pm 25.7 28.6 20.7 74 3.3 NNE 6 7 3 4 1015.2 1015.1 0.0
16/08:00pm 25.8 28.8 20.8 74 3.3 N 6 9 3 5 1014.9 1014.8 0.0
16/07:30pm 26.1 29.3 20.4 71 3.7 NE 4 7 2 4 1014.5 1014.4 0.0
16/07:00pm 27.0 30.8 20.1 66 4.5 CALM 0 0 0 0 1014.2 1014.1 0.0
16/06:30pm 28.4 30.6 19.6 59 5.7 NE 7 7 4 4 1013.9 1013.8 0.0
16/06:00pm 29.6 32.6 18.4 51 7.2 CALM 0 7 0 4 1013.9 1013.8 0.0
16/05:30pm 30.0 31.7 18.4 49 7.5 SE 7 17 4 9 1013.9 1013.8 0.0
16/05:00pm 29.9 31.5 19.9 55 6.6 SE 11 19 6 10 1013.8 1013.7 0.0
16/04:30pm 29.8 30.6 19.8 55 6.6 SSE 15 24 8 13 1013.8 1013.7 0.0
16/04:00pm 31.3 31.8 18.3 46 8.4 SE 13 19 7 10 1013.6 1013.5 0.0
16/03:30pm 30.9 30.1 16.1 41 9.2 SE 15 22 8 12 1013.9 1013.8 0.0
16/03:00pm 31.3 31.5 17.6 44 8.7 E 13 24 7 13 1014.0 1013.9 0.0
16/02:30pm 31.4 31.5 18.4 46 8.4 SE 15 22 8 12 1014.2 1014.1 0.0
16/02:00pm 30.9 30.1 17.2 43 8.7 ESE 17 26 9 14 1014.5 1014.4 0.0
16/01:30pm 30.7 30.5 18.4 47 7.9 ESE 17 28 9 15 1014.9 1014.8 0.0
16/01:00pm 30.5 30.8 19.5 51 7.2 ESE 17 24 9 13 1015.2 1015.1 0.0
16/12:30pm 30.4 30.2 19.4 51 7.2 ESE 19 30 10 16 1015.7 1015.6 0.0
16/12:00pm 31.5 30.9 19.8 49 7.7 E 22 33 12 18 1016.2 1016.1 0.0
16/11:30am 30.9 29.6 19.9 52 7.2 E 26 37 14 20 1016.5 1016.4 0.0
16/11:00am 30.9 29.8 20.2 53 7.1 E 26 35 14 19 1016.9 1016.8 0.0
16/10:30am 30.6 29.0 19.3 51 7.4 E 26 39 14 21 1017.1 1017.0 0.0
16/10:00am 29.5 28.1 20.4 58 6.0 E 28 41 15 22 1017.0 1016.9 0.0
16/09:30am 29.3 29.1 20.5 59 5.8 ENE 22 37 12 20 1016.9 1016.8 0.0
16/09:00am 28.1 30.1 22.3 70 3.9 ENE 15 24 8 13 1017.0 1016.9 0.2
16/08:30am 26.4 29.4 22.7 80 2.5 E 11 15 6 8 1016.9 1016.8 0.2
16/08:00am 25.2 28.1 22.5 85 1.8 E 11 15 6 8 1016.7 1016.6 0.2
16/07:30am 24.2 26.8 21.9 87 1.5 E 11 13 6 7 1016.3 1016.2 0.2
16/07:00am 23.6 26.4 21.5 88 1.4 E 9 11 5 6 1015.9 1015.8 0.2
16/06:30am 23.6 26.0 21.5 88 1.4 E 11 13 6 7 1015.3 1015.2 0.2
16/06:00am 23.7 26.2 21.8 89 1.3 ENE 11 13 6 7 1014.8 1014.7 0.2
16/05:30am 23.7 26.2 21.8 89 1.3 ENE 11 13 6 7 1014.8 1014.7 0.2
16/05:00am 23.8 26.4 21.9 89 1.3 ENE 11 11 6 6 1014.7 1014.6 0.2
16/04:30am 23.8 27.1 21.9 89 1.3 ENE 7 9 4 5 1014.6 1014.5 0.2
16/04:00am 23.9 26.9 22.0 89 1.3 NNE 9 11 5 6 1014.3 1014.2 0.2
16/03:30am 24.0 27.9 21.9 88 1.4 N 4 7 2 4 1013.9 1013.8 0.2
16/03:00am 24.4 28.1 22.3 88 1.4 WNW 6 7 3 4 1014.2 1014.1 0.2
16/02:30am 24.3 28.5 21.8 86 1.7 NW 2 6 1 3 1014.5 1014.4 0.2
16/02:00am 24.7 28.1 21.6 83 2.1 NW 6 7 3 4 1014.8 1014.7 0.2
16/01:30am 26.0 30.1 23.3 85 1.8 WSW 7 9 4 5 1015.1 1015.0 0.2
16/01:00am 26.3 30.4 23.2 83 2.1 W 7 9 4 5 1015.5 1015.4 0.2
16/12:30am 26.2 30.3 23.3 84 2.0 WSW 7 9 4 5 1015.8 1015.7 0.2
16/12:00am 24.3 27.9 22.0 87 1.5 WSW 6 7 3 4 1016.2 1016.1 0.2
 
Date/Time
EST
Temp
°C
App
Temp
°C
Dew
Point
Rel
Hum
%
Delta-T
°C
Wind Press
QNH
hPa
Press
MSL
hPa
Rain
since 9 am
mm
Dir
 
Spd
km/h
Gust
km/h
Spd
kts
Gust
kts
15/11:30pm 24.3 28.8 21.6 85 1.8 CALM 0 0 0 0 1016.4 1016.3 0.2
15/11:00pm 24.6 28.9 21.9 85 1.8 WSW 2 6 1 3 1016.6 1016.5 0.2
15/10:30pm 24.9 29.2 22.0 84 1.9 WSW 2 9 1 5 1016.8 1016.7 0.2
15/10:00pm 24.9 29.4 21.6 82 2.2 CALM 0 0 0 0 1016.8 1016.7 0.2
15/09:30pm 25.0 29.5 21.5 81 2.3 CALM 0 0 0 0 1016.7 1016.6 0.2
15/09:00pm 24.9 29.2 21.2 80 2.4 CALM 0 0 0 0 1016.6 1016.5 0.2
15/08:30pm 25.1 29.4 21.2 79 2.6 CALM 0 0 0 0 1016.3 1016.2 0.2
15/08:00pm 25.7 30.1 21.4 77 2.8 CALM 0 0 0 0 1016.1 1016.0 0.2
15/07:30pm 26.5 31.1 21.7 75 3.2 CALM 0 4 0 2 1015.8 1015.7 0.2
15/07:00pm 27.4 30.6 21.2 69 4.1 SSE 6 7 3 4 1015.6 1015.5 0.2
15/06:30pm 28.3 31.0 21.3 65 4.7 SSW 9 13 5 7 1015.4 1015.3 0.2
15/06:00pm 29.7 33.2 21.9 63 5.3 SW 6 9 3 5 1015.1 1015.0 0.2
15/05:30pm 30.3 33.5 21.7 60 5.8 NW 7 15 4 8 1014.9 1014.8 0.2
15/05:00pm 30.4 33.5 21.5 59 6.0 W 7 13 4 7 1014.7 1014.6 0.2
15/04:30pm 30.3 33.3 21.9 60 5.7 W 9 15 5 8 1014.5 1014.4 0.2
15/04:00pm 31.1 34.1 21.3 56 6.6 N 7 13 4 7 1014.3 1014.2 0.2
15/03:30pm 30.7 34.2 21.8 59 6.0 NNE 6 13 3 7 1014.3 1014.2 0.2
15/03:00pm 30.9 33.9 21.9 58 6.1 NNW 9 22 5 12 1014.4 1014.3 0.2

Other Formats:

Comma delimited format used in spreadsheet applications
http://www.bom.gov.au/fwo/IDQ60801/IDQ60801.94254.axf

JavaScript Object Notation format (JSON) in row-major order
http://www.bom.gov.au/fwo/IDQ60801/IDQ60801.94254.json